createdAt,value
2023-02-19T00:20:15.270Z,35.50
2023-02-19T00:34:16.497Z,35.55
2023-02-19T00:37:55.519Z,35.92
2023-02-19T00:52:38.110Z,37.52
2023-02-19T01:55:21.599Z,48.09
2023-02-19T01:58:17.879Z,49.40
2023-02-19T02:00:47.893Z,49.37
2023-02-19T02:03:50.533Z,50.27
2023-02-19T02:07:17.372Z,46.92
2023-02-19T02:10:16.498Z,47.69
2023-02-19T02:13:20.386Z,48.38
2023-02-19T02:16:54.068Z,49.75
2023-02-19T02:28:08.229Z,54.28
2023-02-19T02:31:17.147Z,51.94
2023-02-19T02:33:47.492Z,50.97
2023-02-19T02:36:21.817Z,52.19
2023-02-19T02:38:53.912Z,51.01
2023-02-19T02:41:22.739Z,50.72
2023-02-19T02:43:51.009Z,51.78
2023-02-19T02:49:23.952Z,54.23
2023-02-19T02:55:18.011Z,53.00
2023-02-19T02:57:50.553Z,53.18
2023-02-19T03:00:19.986Z,52.31
2023-02-19T03:02:48.592Z,51.81
2023-02-19T03:05:48.585Z,51.32
2023-02-19T03:08:47.828Z,51.86
2023-02-19T03:11:49.846Z,51.08
2023-02-19T03:17:17.585Z,53.38
2023-02-19T03:20:18.777Z,53.29
2023-02-19T03:22:59.363Z,51.63
2023-02-19T03:25:50.559Z,51.37
2023-02-19T03:28:49.558Z,52.00
2023-02-19T03:31:22.103Z,50.98
2023-02-19T03:33:58.728Z,50.75
2023-02-19T03:42:19.642Z,51.40
2023-02-19T03:45:03.768Z,54.67
2023-02-19T03:47:50.910Z,51.96
2023-02-19T03:51:18.402Z,52.65
2023-02-19T03:54:19.616Z,52.28
2023-02-19T03:57:18.402Z,53.26
2023-02-19T04:00:29.701Z,54.55
2023-02-19T04:03:29.707Z,52.15
2023-02-19T04:06:20.526Z,52.25
2023-02-19T04:09:31.561Z,52.38
2023-02-19T04:11:59.766Z,51.24
2023-02-19T04:18:09.133Z,51.42
2023-02-19T04:20:49.920Z,50.78
2023-02-19T04:23:24.736Z,51.46
2023-02-19T04:26:31.408Z,52.29
2023-02-19T04:29:00.316Z,52.35
2023-02-19T04:31:31.347Z,51.08
2023-02-19T04:34:20.621Z,50.72
2023-02-19T04:36:50.204Z,52.93
2023-02-19T04:41:52.901Z,51.83
2023-02-19T04:44:21.498Z,50.94
2023-02-19T04:46:49.858Z,49.88
2023-02-19T04:49:21.138Z,49.87
2023-02-19T04:54:19.719Z,50.07
2023-02-19T04:56:51.763Z,50.28
2023-02-19T04:59:20.354Z,51.43
2023-02-19T05:01:51.831Z,52.13
2023-02-19T05:04:19.943Z,52.96
2023-02-19T05:06:51.940Z,52.71
2023-02-19T05:09:20.332Z,51.42
2023-02-19T05:11:51.704Z,51.88
2023-02-19T05:14:21.406Z,52.05
2023-02-19T05:16:49.838Z,50.54
2023-02-19T05:19:21.304Z,50.42
2023-02-19T05:21:49.223Z,51.78
2023-02-19T05:24:17.757Z,51.25
2023-02-19T05:26:52.688Z,51.24
2023-02-19T05:29:21.089Z,51.68
2023-02-19T05:31:50.129Z,52.20
2023-02-19T05:34:21.637Z,52.35
2023-02-19T05:36:49.733Z,52.61
2023-02-19T05:39:50.814Z,51.61
2023-02-19T05:42:22.489Z,51.19
2023-02-19T05:47:52.530Z,50.05
2023-02-19T05:50:53.555Z,50.69
2023-02-19T05:53:22.197Z,49.97
2023-02-19T05:58:51.136Z,50.33
2023-02-19T06:04:47.686Z,51.94
2023-02-19T06:07:51.407Z,52.03
2023-02-19T06:15:50.579Z,50.45
2023-02-19T06:27:20.366Z,51.14
2023-02-19T06:29:55.072Z,51.89
2023-02-19T06:32:50.797Z,51.34
2023-02-19T06:35:50.086Z,51.57
2023-02-19T06:38:20.551Z,51.25
2023-02-19T06:40:50.807Z,51.74
2023-02-19T06:46:50.696Z,51.41
2023-02-19T06:52:04.568Z,51.08
2023-02-19T06:54:50.715Z,51.37
2023-02-19T07:00:49.654Z,51.98
2023-02-19T07:03:17.985Z,52.05
2023-02-19T07:05:53.022Z,52.06
2023-02-19T07:14:18.468Z,51.66
2023-02-19T07:16:53.226Z,52.43
2023-02-19T07:19:51.698Z,52.34
2023-02-19T07:22:19.937Z,53.07
2023-02-19T07:24:51.815Z,53.03
2023-02-19T07:27:20.476Z,52.84
2023-02-19T07:29:51.763Z,53.39
2023-02-19T07:32:20.038Z,53.62
2023-02-19T07:34:51.088Z,53.79
2023-02-19T07:43:22.602Z,53.63
2023-02-19T07:45:51.667Z,53.30
2023-02-19T07:48:49.551Z,53.63
2023-02-19T07:54:22.591Z,53.33
2023-02-19T07:56:50.977Z,52.97
2023-02-19T08:02:50.681Z,53.96
2023-02-19T08:05:20.734Z,54.46
2023-02-19T08:07:51.850Z,55.06
2023-02-19T08:13:54.516Z,56.16
2023-02-19T08:16:36.711Z,56.20
2023-02-19T08:19:19.445Z,56.30
2023-02-19T08:21:53.635Z,56.37
2023-02-19T08:24:22.101Z,56.59
2023-02-19T08:26:50.804Z,56.22
2023-02-19T08:29:20.086Z,55.96
2023-02-19T08:31:54.153Z,55.04
2023-02-19T08:34:22.497Z,54.33
2023-02-19T08:36:50.799Z,54.27
2023-02-19T08:39:22.230Z,55.00
2023-02-19T08:41:58.294Z,55.44
2023-02-19T08:44:49.839Z,56.40
2023-02-19T08:47:21.084Z,56.60
2023-02-19T08:49:50.779Z,56.71
2023-02-19T08:52:22.226Z,57.16
2023-02-19T08:54:50.622Z,57.11
2023-02-19T08:57:22.028Z,56.68
2023-02-19T08:59:50.391Z,56.02
2023-02-19T09:02:21.651Z,56.18
2023-02-19T09:04:58.090Z,55.90
2023-02-19T09:07:51.004Z,54.90
2023-02-19T09:10:20.788Z,54.52
2023-02-19T09:15:19.365Z,55.18
2023-02-19T09:17:54.442Z,55.27
2023-02-19T09:20:22.846Z,55.81
2023-02-19T09:22:51.184Z,56.07
2023-02-19T09:25:21.939Z,56.79
2023-02-19T09:27:55.103Z,56.94
2023-02-19T09:30:23.619Z,57.58
2023-02-19T09:32:52.197Z,57.99
2023-02-19T09:35:20.485Z,58.31
2023-02-19T09:37:52.095Z,58.32
2023-02-19T09:40:23.345Z,58.40
2023-02-19T09:42:52.924Z,58.33
2023-02-19T09:45:48.451Z,58.84
2023-02-19T09:48:16.722Z,58.70
2023-02-19T09:50:52.987Z,58.70
2023-02-19T09:53:49.942Z,58.88
2023-02-19T09:56:21.818Z,59.05
2023-02-19T09:58:56.129Z,59.60
2023-02-19T10:01:50.934Z,59.65
2023-02-19T10:04:22.079Z,59.68
2023-02-19T10:06:52.458Z,59.63
2023-02-19T10:09:50.157Z,59.29
2023-02-19T10:12:55.840Z,59.71
2023-02-19T10:15:51.289Z,60.00
2023-02-19T10:21:07.139Z,60.01
2023-02-19T10:23:55.460Z,60.04
2023-02-19T10:26:24.875Z,59.96
2023-02-19T10:28:55.002Z,59.86
2023-02-19T10:31:40.169Z,59.62
2023-02-19T10:34:24.011Z,59.78
2023-02-19T10:36:54.048Z,60.05
2023-02-19T10:39:40.982Z,60.23
2023-02-19T10:42:24.545Z,60.21
2023-02-19T10:47:24.560Z,60.34
2023-02-19T10:49:56.559Z,60.73
2023-02-19T10:52:55.649Z,60.57
2023-02-19T10:56:02.459Z,60.81
2023-02-19T10:58:51.143Z,61.06
2023-02-19T11:01:27.868Z,61.40
2023-02-19T11:04:21.277Z,61.27
2023-02-19T11:06:49.760Z,61.26
2023-02-19T11:09:22.728Z,61.26
2023-02-19T11:11:55.167Z,61.38
2023-02-19T11:14:26.109Z,61.53
2023-02-19T11:17:25.704Z,61.24
2023-02-19T11:23:30.061Z,60.89
2023-02-19T11:30:20.768Z,61.46
2023-02-19T11:33:20.657Z,61.53
2023-02-19T11:36:20.587Z,61.16
2023-02-19T11:39:18.196Z,61.94
2023-02-19T11:42:04.805Z,61.77
2023-02-19T11:45:21.035Z,61.52
2023-02-19T11:48:28.128Z,62.31
2023-02-19T11:55:21.366Z,62.38
2023-02-19T11:58:23.225Z,61.87
2023-02-19T12:04:24.128Z,62.25
2023-02-19T12:07:30.952Z,62.18
2023-02-19T12:14:20.256Z,62.44
2023-02-19T12:17:23.145Z,62.26
2023-02-19T12:20:18.186Z,62.55
2023-02-19T12:23:24.865Z,62.46
2023-02-19T12:27:10.928Z,62.32
2023-02-19T12:30:23.348Z,62.66
2023-02-19T12:37:18.055Z,62.76
2023-02-19T12:40:18.556Z,62.69
2023-02-19T12:43:24.792Z,63.04
2023-02-19T12:46:18.348Z,63.02
2023-02-19T12:49:27.617Z,62.96
2023-02-19T12:52:19.090Z,63.43
2023-02-19T12:55:21.315Z,63.22
2023-02-19T12:58:18.018Z,63.74
2023-02-19T13:01:21.205Z,63.27
2023-02-19T13:07:18.197Z,63.23
2023-02-19T13:09:52.736Z,63.43
2023-02-19T13:15:16.064Z,63.70
2023-02-19T13:18:21.197Z,63.78
2023-02-19T13:20:52.563Z,64.20
2023-02-19T13:23:47.857Z,64.33
2023-02-19T13:27:21.274Z,63.46
2023-02-19T13:30:22.476Z,63.51
2023-02-19T13:33:16.224Z,64.10
2023-02-19T13:36:19.352Z,64.29
2023-02-19T13:39:11.449Z,64.14
2023-02-19T13:42:18.861Z,63.73
2023-02-19T13:44:58.572Z,64.33
2023-02-19T13:51:08.988Z,64.77
2023-02-19T13:54:16.864Z,64.55
2023-02-19T13:56:48.603Z,64.75
2023-02-19T14:00:19.446Z,64.27
2023-02-19T14:03:19.591Z,64.05
2023-02-19T14:06:46.367Z,64.32
2023-02-19T14:09:49.025Z,64.70
2023-02-19T14:12:23.271Z,64.97
2023-02-19T14:15:26.640Z,64.21
2023-02-19T14:18:22.349Z,64.73
2023-02-19T14:20:55.514Z,65.27
2023-02-19T14:23:27.081Z,65.12
2023-02-19T14:26:17.101Z,64.85
2023-02-19T14:28:50.157Z,65.05
2023-02-19T14:31:48.428Z,64.80
2023-02-19T14:34:24.418Z,65.16
2023-02-19T14:37:27.445Z,64.90
2023-02-19T14:40:46.791Z,65.17
2023-02-19T14:43:24.778Z,66.43
2023-02-19T14:46:44.874Z,66.49
2023-02-19T14:49:28.628Z,66.91
2023-02-19T14:52:48.382Z,67.13
2023-02-19T15:02:22.540Z,67.24
2023-02-19T15:05:25.409Z,67.59
2023-02-19T15:08:19.921Z,67.98
2023-02-19T15:10:49.271Z,67.99
2023-02-19T15:15:48.087Z,67.01
2023-02-19T15:18:24.008Z,66.08
2023-02-19T15:21:21.252Z,66.31
2023-02-19T15:23:49.773Z,66.48
2023-02-19T15:26:24.120Z,66.66
2023-02-19T15:29:18.248Z,66.90
2023-02-19T15:31:53.426Z,67.47
2023-02-19T15:36:52.081Z,66.60
2023-02-19T15:42:22.616Z,66.52
2023-02-19T15:45:26.370Z,66.49
2023-02-19T15:48:20.477Z,67.51
2023-02-19T15:51:22.918Z,67.82
2023-02-19T15:54:31.499Z,66.72
2023-02-19T15:57:26.752Z,64.75
2023-02-19T16:00:52.529Z,65.36
2023-02-19T16:03:26.612Z,64.97
2023-02-19T16:06:06.727Z,64.86
2023-02-19T16:12:52.377Z,63.03
2023-02-19T16:22:46.878Z,62.05
2023-02-19T16:25:46.994Z,63.62
2023-02-19T16:28:45.798Z,61.89
2023-02-19T16:31:47.787Z,59.65
2023-02-19T16:34:47.812Z,60.73
2023-02-19T16:37:53.122Z,59.37
2023-02-19T16:44:42.886Z,57.91
2023-02-19T16:47:49.172Z,56.44
2023-02-19T16:50:33.181Z,54.56
2023-02-19T16:53:48.523Z,51.21
2023-02-19T17:40:07.985Z,47.00
2023-02-19T17:42:37.022Z,46.27
2023-02-19T17:45:05.726Z,46.18
2023-02-19T17:48:18.126Z,46.77
2023-02-19T17:51:16.055Z,49.14
2023-02-19T17:54:19.565Z,53.19
2023-02-19T17:57:15.434Z,49.83
2023-02-19T17:59:46.998Z,49.40
2023-02-19T18:02:15.257Z,48.18
2023-02-19T18:07:16.141Z,44.51
2023-02-19T18:10:15.100Z,46.13
2023-02-19T18:13:17.244Z,46.38
2023-02-19T18:15:49.151Z,48.53
2023-02-19T18:18:17.512Z,47.80
2023-02-19T18:21:14.592Z,49.12
2023-02-19T18:24:15.259Z,49.54
2023-02-19T18:27:15.606Z,50.71
2023-02-19T18:30:20.153Z,49.31
2023-02-19T18:32:54.784Z,51.80
2023-02-19T18:42:21.707Z,51.06
2023-02-19T18:48:44.302Z,45.38
2023-02-19T18:51:02.874Z,45.24
2023-02-19T18:53:47.021Z,46.39
2023-02-19T18:56:15.781Z,46.77
2023-02-19T18:58:44.215Z,47.06
2023-02-19T19:04:20.319Z,45.00
2023-02-19T19:07:18.828Z,45.97
2023-02-19T19:10:19.385Z,47.38
2023-02-19T19:13:15.622Z,47.52
2023-02-19T19:16:17.725Z,47.93
2023-02-19T19:18:49.100Z,48.01
2023-02-19T19:21:17.827Z,49.22
2023-02-19T19:25:02.187Z,47.96
2023-02-19T19:30:50.873Z,48.28
2023-02-19T19:33:20.351Z,47.78
2023-02-19T19:35:51.148Z,46.87
2023-02-19T19:38:19.520Z,46.00
2023-02-19T19:40:47.859Z,46.27
2023-02-19T19:43:16.124Z,46.75
2023-02-19T19:45:50.198Z,46.81
2023-02-19T19:48:18.575Z,47.73
2023-02-19T19:50:49.424Z,48.94
2023-02-19T19:53:18.150Z,50.66
2023-02-19T19:55:47.644Z,50.30
2023-02-19T19:58:23.609Z,51.38
2023-02-19T20:00:55.501Z,52.59
2023-02-19T20:03:24.015Z,51.98
2023-02-19T20:05:52.407Z,49.12
2023-02-19T20:08:20.907Z,47.50
2023-02-19T20:10:58.088Z,48.02
2023-02-19T20:13:37.388Z,47.70
2023-02-19T20:16:06.980Z,48.93
2023-02-19T20:19:17.660Z,49.19
2023-02-19T20:25:13.464Z,48.32
2023-02-19T20:27:49.870Z,45.14
2023-02-19T20:32:48.408Z,41.90
2023-02-19T20:35:18.558Z,39.75
2023-02-19T20:37:54.335Z,41.04
2023-02-19T20:40:31.315Z,41.53
2023-02-19T20:45:40.403Z,47.89
2023-02-19T20:48:19.404Z,47.47
2023-02-19T20:50:48.397Z,45.37
2023-02-19T20:53:19.191Z,45.77
2023-02-19T20:55:47.451Z,43.33
2023-02-19T20:58:15.858Z,42.97
2023-02-19T21:00:47.261Z,40.65
2023-02-19T21:03:16.062Z,42.74
2023-02-19T21:05:45.830Z,43.81
2023-02-19T21:08:15.011Z,45.58
2023-02-19T21:10:43.308Z,45.81
2023-02-19T21:13:12.038Z,45.72
2023-02-19T21:15:46.509Z,46.27
2023-02-19T21:18:18.422Z,43.79
2023-02-19T21:20:46.844Z,43.95
2023-02-19T21:23:15.468Z,42.59
2023-02-19T21:25:46.405Z,42.22
2023-02-19T21:28:20.986Z,42.58
2023-02-19T21:30:49.884Z,43.05
2023-02-19T21:33:18.784Z,43.49
2023-02-19T21:35:50.141Z,42.63
2023-02-19T21:38:18.489Z,42.41
2023-02-19T21:43:31.270Z,40.28
2023-02-19T21:46:09.232Z,41.00
2023-02-19T21:49:20.795Z,39.88
2023-02-19T21:52:27.036Z,39.36
2023-02-19T21:55:20.088Z,41.73
2023-02-19T21:58:21.809Z,41.40
2023-02-19T22:13:49.378Z,41.65
2023-02-19T22:16:21.232Z,41.64
2023-02-19T22:19:21.422Z,42.19
2023-02-19T22:21:51.415Z,42.48
2023-02-19T22:24:22.250Z,41.35
2023-02-19T22:26:56.434Z,41.37
2023-02-19T22:29:25.204Z,41.53
2023-02-19T22:35:20.296Z,42.33
2023-02-19T22:37:53.401Z,42.44
2023-02-19T22:40:21.678Z,42.13
2023-02-19T22:42:51.900Z,43.16
2023-02-19T22:45:20.197Z,43.44
2023-02-19T22:47:48.469Z,43.86
2023-02-19T22:50:23.301Z,44.30
2023-02-19T22:52:55.383Z,44.81
2023-02-19T22:55:23.948Z,45.30
2023-02-19T22:57:52.297Z,45.58
2023-02-19T23:00:22.444Z,45.57
2023-02-19T23:02:50.825Z,45.73
2023-02-19T23:05:19.107Z,46.01
2023-02-19T23:07:47.679Z,46.79
2023-02-19T23:10:16.063Z,46.62
2023-02-19T23:12:44.386Z,47.13
2023-02-19T23:15:12.986Z,47.36
2023-02-19T23:17:42.596Z,47.74
2023-02-19T23:20:11.181Z,47.93
2023-02-19T23:22:39.703Z,48.34
2023-02-19T23:25:08.594Z,48.44
2023-02-19T23:27:36.841Z,48.87
2023-02-19T23:30:05.682Z,48.94
2023-02-19T23:32:34.115Z,49.20
2023-02-19T23:35:05.475Z,49.23
2023-02-19T23:37:33.852Z,49.39
2023-02-19T23:40:05.076Z,49.97
2023-02-19T23:42:32.992Z,50.26
2023-02-19T23:45:01.324Z,49.85
2023-02-19T23:47:30.703Z,50.04
2023-02-19T23:49:59.075Z,50.24
2023-02-19T23:52:27.365Z,50.24
2023-02-19T23:54:57.458Z,50.32
2023-02-19T23:57:25.784Z,50.59
2023-02-19T23:59:54.359Z,50.80
